Terminal Aerodrome Forecast
Issued by NWS Mt. Holly, NJ

Home | Current Version | Previous Version | Text Only | Print | Product List | Glossary On
Versions: 1 2 3 4 5 6 7 8 9 10 11 12 13 14 15 16 17 18 19 20 21 22
000
FTUS41 KPHI 292326
TAFPHL
TAF
KPHL 292326Z 3000/3106 21005KT P6SM FEW050 SCT250
     FM301500 23008KT P6SM SCT050 BKN250
     FM310300 23005KT P6SM SCT050 OVC200=

USA.gov is the U.S. government's official web portal to all federal, state and local government web resources and services.